Mile Branch, Mississippi
Current Conditions -  °F | °C
As of 8:53 PM on Friday 21 Nov 2014 (Local Time) from KMCB Reporting Station
Few Clouds Few Clouds  
Wind Chill: 14°   Ceiling: Unl
Heat Index: 14°   Visibility: 10mi
Dew Point:   Wind: 8mph
Humidity: 62%   Direction: 140°SE
Pressure: 30.28"   Gusts: NA
Location:  31.4031°N, 90.8369°W
Report Text: KMCB 220253Z AUTO 14007KT 10SM FEW110 14/07 A3028 RMK AO2 SLP251 T01390067 50006
Loading
Personal Weather Stations






























Interactive Weather Map New forecast layout! Learn more

10-Day Weather Forecast

Advertisements
Track Severe Weather on mobile